Time;durP1;ratioP1;P1;durP2;ratioP2;P2;SDS_P1;SDS_P2;PMS_P1;PMS_P2;Temp;Humidity;BMP_temperature;BMP_pressure;BME280_temperature;BME280_humidity;BME280_pressure;Samples;Min_cycle;Max_cycle;Signal;HPM_P1;HPM_P2
2023/02/27 00:00:52;;;;;;;5.47;4.50;;;3.90;71.80;;;;;;5077088;28;20472;-58
2023/02/27 00:03:19;;;;;;;4.67;3.50;;;3.90;72.40;;;;;;5077098;28;20449;-58
2023/02/27 00:05:46;;;;;;;4.77;3.63;;;3.80;72.60;;;;;;5076622;28;20447;-58
2023/02/27 00:08:13;;;;;;;4.20;3.37;;;3.80;73.00;;;;;;5076670;28;20946;-58
2023/02/27 00:10:39;;;;;;;5.17;3.27;;;3.80;73.60;;;;;;5076813;28;20534;-58
2023/02/27 00:13:06;;;;;;;3.93;3.53;;;3.80;74.00;;;;;;5076342;28;20792;-57
2023/02/27 00:15:33;;;;;;;5.77;3.60;;;3.80;74.30;;;;;;5076797;28;20535;-57
2023/02/27 00:18:01;;;;;;;6.33;3.67;;;3.80;74.20;;;;;;5076294;28;20448;-58
2023/02/27 00:20:28;;;;;;;4.10;3.70;;;3.80;74.20;;;;;;5076177;28;21028;-58
2023/02/27 00:22:55;;;;;;;8.97;4.60;;;3.80;75.00;;;;;;5076429;28;20460;-58
2023/02/27 00:25:21;;;;;;;5.50;4.00;;;3.80;75.40;;;;;;5076643;28;20523;-57
2023/02/27 00:27:48;;;;;;;4.60;3.57;;;3.80;75.40;;;;;;5076393;28;20448;-57
2023/02/27 00:30:16;;;;;;;6.03;4.00;;;3.80;75.20;;;;;;5076032;28;20958;-58
2023/02/27 00:32:43;;;;;;;4.60;3.97;;;3.80;75.40;;;;;;5076343;28;20459;-58
2023/02/27 00:35:12;;;;;;;4.77;3.60;;;3.80;75.60;;;;;;5076334;28;20558;-57
2023/02/27 00:37:39;;;;;;;3.47;3.17;;;3.80;75.60;;;;;;5076535;28;20440;-58
2023/02/27 00:40:08;;;;;;;4.40;3.50;;;3.80;75.80;;;;;;5076054;28;20488;-58
2023/02/27 00:42:35;;;;;;;7.00;4.27;;;3.80;76.00;;;;;;5076168;28;20480;-58
2023/02/27 00:45:02;;;;;;;6.30;4.43;;;3.70;76.00;;;;;;5075825;28;20449;-58
2023/02/27 00:47:28;;;;;;;10.93;4.53;;;3.70;76.10;;;;;;5076194;28;20455;-58
2023/02/27 00:49:55;;;;;;;6.63;3.67;;;3.70;76.40;;;;;;5075990;28;20552;-58
2023/02/27 00:52:23;;;;;;;4.20;3.80;;;3.70;76.50;;;;;;5075696;28;20455;-57
2023/02/27 00:54:50;;;;;;;5.50;3.90;;;3.70;76.40;;;;;;5075909;28;20444;-57
2023/02/27 00:57:17;;;;;;;6.17;5.03;;;3.70;76.30;;;;;;5074664;28;20448;-58
2023/02/27 00:59:44;;;;;;;5.17;4.33;;;3.70;76.30;;;;;;5075704;28;20484;-58
2023/02/27 01:02:11;;;;;;;9.63;4.67;;;3.60;76.30;;;;;;5076007;28;20490;-58
2023/02/27 01:04:37;;;;;;;5.93;4.27;;;3.60;76.20;;;;;;5075479;28;20456;-58
2023/02/27 01:07:04;;;;;;;5.87;4.53;;;3.60;76.30;;;;;;5076030;28;20445;-58
2023/02/27 01:09:32;;;;;;;5.87;4.60;;;3.50;76.40;;;;;;5075669;28;20457;-58
2023/02/27 01:11:59;;;;;;;4.57;4.10;;;3.50;76.80;;;;;;5075307;28;20445;-58
2023/02/27 01:14:26;;;;;;;6.80;3.80;;;3.50;77.20;;;;;;5075659;28;20445;-58
2023/02/27 01:16:53;;;;;;;5.30;3.43;;;3.40;77.40;;;;;;5075628;28;20452;-58
2023/02/27 01:19:20;;;;;;;4.13;3.73;;;3.40;77.50;;;;;;5075430;28;20484;-58
2023/02/27 01:21:46;;;;;;;5.00;4.50;;;3.40;78.00;;;;;;5075279;28;20456;-58
2023/02/27 01:24:13;;;;;;;4.10;3.80;;;3.40;78.70;;;;;;5075514;28;20797;-58
2023/02/27 01:26:41;;;;;;;7.93;4.10;;;3.40;78.60;;;;;;5075404;28;20444;-58
2023/02/27 01:29:08;;;;;;;4.47;3.90;;;3.40;78.70;;;;;;5075616;28;20472;-58
2023/02/27 01:31:35;;;;;;;3.93;3.23;;;3.40;78.90;;;;;;5075469;28;20448;-58
2023/02/27 01:34:02;;;;;;;4.07;3.77;;;3.40;79.10;;;;;;5075096;28;20452;-58
2023/02/27 01:36:28;;;;;;;5.20;3.60;;;3.40;79.50;;;;;;5076128;28;20453;-58
2023/02/27 01:38:55;;;;;;;9.00;3.90;;;3.40;79.80;;;;;;5075797;28;20476;-58
2023/02/27 01:41:22;;;;;;;4.60;3.80;;;3.40;80.20;;;;;;5075595;28;20448;-58
2023/02/27 01:43:59;;;;;;;4.80;4.10;;;3.40;80.30;;;;;;5075485;28;20451;-58
2023/02/27 01:46:26;;;;;;;4.03;3.73;;;3.30;80.50;;;;;;5075523;28;20424;-59
2023/02/27 01:48:58;;;;;;;4.87;3.93;;;3.30;80.60;;;;;;5075111;28;20820;-59
2023/02/27 01:51:27;;;;;;;5.10;3.97;;;3.30;80.70;;;;;;5075236;28;20473;-59
2023/02/27 01:53:56;;;;;;;4.47;4.07;;;3.30;80.80;;;;;;5074930;28;20445;-59
2023/02/27 01:56:25;;;;;;;5.47;4.47;;;3.30;80.90;;;;;;5074912;28;20497;-59
2023/02/27 01:58:55;;;;;;;5.33;4.20;;;3.30;81.00;;;;;;5074490;28;20941;-59
2023/02/27 02:01:23;;;;;;;3.67;3.23;;;3.20;81.00;;;;;;5074703;28;20484;-59
2023/02/27 02:03:56;;;;;;;3.73;3.40;;;3.20;81.30;;;;;;5074692;28;20453;-59
2023/02/27 02:06:25;;;;;;;4.00;3.37;;;3.20;81.50;;;;;;5074616;28;20442;-59
2023/02/27 02:08:54;;;;;;;5.00;4.03;;;3.20;82.00;;;;;;5073927;28;20502;-59
2023/02/27 02:11:23;;;;;;;4.60;3.83;;;3.20;82.20;;;;;;5074489;28;20444;-59
2023/02/27 02:13:55;;;;;;;7.00;3.87;;;3.20;82.40;;;;;;5074523;28;20456;-59
2023/02/27 02:16:37;;;;;;;4.80;3.80;;;3.20;82.60;;;;;;5074618;28;20429;-59
2023/02/27 02:19:34;;;;;;;6.47;4.80;;;3.20;82.70;;;;;;5074584;28;20876;-59
2023/02/27 02:22:31;;;;;;;4.70;4.10;;;3.20;83.00;;;;;;5074035;28;20455;-59
2023/02/27 02:25:36;;;;;;;6.07;5.10;;;3.20;83.40;;;;;;5073930;28;20899;-59
2023/02/27 02:28:15;;;;;;;4.20;3.67;;;3.10;83.40;;;;;;5074102;28;20497;-59
2023/02/27 02:31:24;;;;;;;4.30;3.90;;;3.10;83.50;;;;;;5074096;28;20457;-59
2023/02/27 02:34:33;;;;;;;6.93;4.30;;;3.10;83.60;;;;;;5052138;28;20448;-59
2023/02/27 02:37:38;;;;;;;7.73;3.77;;;3.10;83.80;;;;;;5074051;28;20498;-59
2023/02/27 02:40:15;;;;;;;6.30;4.10;;;3.10;83.70;;;;;;5073543;28;21012;-59
2023/02/27 02:42:52;;;;;;;5.70;4.40;;;3.00;83.60;;;;;;5073988;28;20443;-59
2023/02/27 02:45:27;;;;;;;5.97;3.83;;;3.00;83.80;;;;;;5073870;28;20490;-59
2023/02/27 02:48:03;;;;;;;4.60;4.03;;;3.00;83.90;;;;;;5074041;28;20444;-59
2023/02/27 02:50:35;;;;;;;5.53;5.00;;;3.00;84.00;;;;;;5074157;28;20483;-59
2023/02/27 02:53:10;;;;;;;7.93;4.70;;;2.90;83.90;;;;;;5073785;28;20429;-58
2023/02/27 02:55:45;;;;;;;7.37;5.13;;;2.90;83.80;;;;;;5073747;28;20432;-59
2023/02/27 02:58:17;;;;;;;8.63;4.73;;;2.80;83.70;;;;;;5073717;28;20428;-59
2023/02/27 03:00:49;;;;;;;6.80;4.60;;;2.80;84.00;;;;;;5073510;28;20485;-59
2023/02/27 03:03:22;;;;;;;4.93;4.37;;;2.80;84.30;;;;;;5073644;28;20431;-59
2023/02/27 03:05:53;;;;;;;9.73;4.77;;;2.70;84.40;;;;;;5073941;28;20825;-59
2023/02/27 03:08:24;;;;;;;5.93;4.17;;;2.70;84.70;;;;;;5073228;28;20425;-59
2023/02/27 03:10:56;;;;;;;5.47;4.30;;;2.70;85.20;;;;;;5073739;28;20466;-58
2023/02/27 03:13:30;;;;;;;5.77;4.27;;;2.70;85.50;;;;;;5073260;28;20902;-59
2023/02/27 03:16:02;;;;;;;4.60;3.90;;;2.70;85.70;;;;;;5073129;28;20429;-59
2023/02/27 03:18:35;;;;;;;4.33;3.93;;;2.70;85.80;;;;;;5073144;28;20925;-59
2023/02/27 03:21:08;;;;;;;6.67;4.47;;;2.60;85.80;;;;;;5072661;28;20842;-59
2023/02/27 03:23:40;;;;;;;7.77;5.27;;;2.60;86.00;;;;;;5074183;28;20441;-59
2023/02/27 03:26:09;;;;;;;8.10;5.33;;;2.60;86.20;;;;;;5073434;28;20432;-59
2023/02/27 03:28:40;;;;;;;6.03;5.37;;;2.60;86.40;;;;;;5073191;28;20448;-59
2023/02/27 03:31:11;;;;;;;7.90;5.20;;;2.60;86.60;;;;;;5073298;28;20429;-59
2023/02/27 03:33:42;;;;;;;8.60;5.50;;;2.60;86.70;;;;;;5073277;28;20433;-59
2023/02/27 03:36:13;;;;;;;6.57;5.10;;;2.60;86.70;;;;;;5073987;28;20433;-59
2023/02/27 03:38:43;;;;;;;8.20;4.60;;;2.60;86.70;;;;;;5073086;28;20460;-59
2023/02/27 03:41:18;;;;;;;8.37;4.87;;;2.50;86.50;;;;;;5072874;28;21023;-59
2023/02/27 03:43:52;;;;;;;5.60;4.50;;;2.50;86.80;;;;;;5072876;28;20906;-58
2023/02/27 03:46:23;;;;;;;5.13;4.23;;;2.50;87.00;;;;;;5073202;28;20436;-59
2023/02/27 03:48:50;;;;;;;7.80;4.43;;;2.50;87.00;;;;;;5073031;28;20432;-59
2023/02/27 03:51:19;;;;;;;6.70;4.53;;;2.40;86.80;;;;;;5073109;28;20444;-59
2023/02/27 03:53:52;;;;;;;4.93;4.33;;;2.40;87.00;;;;;;5073054;28;20444;-59
2023/02/27 03:56:27;;;;;;;7.93;4.53;;;2.40;87.10;;;;;;5073068;28;20440;-59
2023/02/27 03:58:54;;;;;;;6.47;4.67;;;2.40;87.40;;;;;;5072902;28;20428;-57
2023/02/27 04:01:21;;;;;;;4.60;4.20;;;2.40;87.70;;;;;;5072939;28;20521;-57
2023/02/27 04:03:54;;;;;;;7.77;5.00;;;2.40;87.90;;;;;;5072952;28;20459;-57
2023/02/27 04:09:11;;;;;;;4.97;4.57;;;2.20;87.90;;;;;;5072819;28;20439;-57
2023/02/27 04:11:53;;;;;;;5.80;4.60;;;2.20;88.40;;;;;;5072996;28;20516;-57
2023/02/27 04:14:36;;;;;;;4.93;4.30;;;2.20;88.70;;;;;;5072841;28;20439;-57
2023/02/27 04:17:16;;;;;;;6.50;4.70;;;2.20;89.00;;;;;;5072935;28;20440;-57
2023/02/27 04:20:01;;;;;;;6.23;4.20;;;2.20;89.20;;;;;;5072806;28;20530;-58
2023/02/27 04:22:34;;;;;;;5.57;4.13;;;2.20;89.10;;;;;;5072701;28;20463;-58
2023/02/27 04:25:15;;;;;;;8.03;5.07;;;2.10;88.90;;;;;;5072910;28;20440;-58
2023/02/27 04:27:51;;;;;;;8.23;5.47;;;2.10;88.80;;;;;;5073390;28;20432;-57
2023/02/27 04:30:25;;;;;;;8.30;4.60;;;2.00;88.90;;;;;;5073307;28;20494;-57
2023/02/27 04:32:57;;;;;;;6.80;4.70;;;2.00;88.90;;;;;;5076705;28;20424;-58
2023/02/27 04:35:28;;;;;;;7.90;4.80;;;2.00;89.00;;;;;;5076615;28;20425;-58
2023/02/27 04:37:59;;;;;;;6.20;4.00;;;2.00;89.10;;;;;;5076116;28;20910;-57
2023/02/27 04:40:30;;;;;;;7.47;4.70;;;2.00;88.90;;;;;;5076313;28;20484;-58
2023/02/27 04:43:00;;;;;;;4.43;3.83;;;1.90;88.90;;;;;;5076258;28;20433;-58
2023/02/27 04:45:29;;;;;;;4.20;3.80;;;1.90;88.80;;;;;;5076259;28;20433;-58
2023/02/27 04:48:00;;;;;;;4.77;4.27;;;1.90;88.70;;;;;;5076387;28;20448;-58
2023/02/27 04:50:33;;;;;;;7.03;4.70;;;1.80;88.90;;;;;;5075889;28;21012;-57
2023/02/27 04:53:06;;;;;;;4.63;4.20;;;1.80;89.30;;;;;;5076115;28;20432;-57
2023/02/27 04:55:38;;;;;;;6.87;5.00;;;1.80;89.50;;;;;;5075984;28;20423;-58
2023/02/27 04:58:11;;;;;;;5.10;4.70;;;1.80;89.60;;;;;;5076130;28;20429;-58
2023/02/27 05:00:41;;;;;;;8.23;4.90;;;1.70;89.40;;;;;;5075945;28;20500;-58
2023/02/27 05:03:13;;;;;;;5.33;4.60;;;1.70;89.40;;;;;;5075997;28;20842;-58
2023/02/27 05:05:42;;;;;;;4.97;4.40;;;1.60;89.40;;;;;;5075672;28;21020;-58
2023/02/27 05:08:16;;;;;;;5.20;4.40;;;1.60;89.70;;;;;;5076085;28;20451;-58
2023/02/27 05:10:49;;;;;;;5.90;4.60;;;1.60;89.80;;;;;;5075384;28;20476;-57
2023/02/27 05:13:20;;;;;;;4.90;4.00;;;1.60;89.90;;;;;;5075878;28;20437;-58
2023/02/27 05:15:52;;;;;;;5.57;4.37;;;1.50;90.00;;;;;;5075729;28;20420;-58
2023/02/27 05:18:21;;;;;;;4.67;4.27;;;1.50;90.10;;;;;;5075643;28;20437;-58
2023/02/27 05:20:57;;;;;;;8.33;5.37;;;1.50;90.10;;;;;;5075450;28;20496;-57
2023/02/27 05:23:33;;;;;;;4.90;3.93;;;1.50;90.20;;;;;;5075761;28;20440;-57
2023/02/27 05:26:02;;;;;;;5.23;4.27;;;1.50;90.20;;;;;;5075348;28;20850;-57
2023/02/27 05:28:36;;;;;;;5.67;4.17;;;1.50;90.30;;;;;;5075263;28;20444;-58
2023/02/27 05:31:09;;;;;;;4.80;4.10;;;1.50;90.30;;;;;;5075532;28;20424;-58
2023/02/27 05:33:41;;;;;;;5.73;4.63;;;1.50;90.40;;;;;;5075346;28;20429;-58
2023/02/27 05:36:14;;;;;;;5.37;4.57;;;1.40;90.40;;;;;;5075378;28;20428;-58
2023/02/27 05:38:43;;;;;;;5.77;4.33;;;1.40;90.40;;;;;;5075151;28;20431;-58
2023/02/27 05:41:13;;;;;;;4.70;4.30;;;1.40;90.90;;;;;;5075230;28;20488;-57
2023/02/27 05:43:44;;;;;;;5.27;4.77;;;1.40;90.50;;;;;;5075539;28;20445;-58
2023/02/27 05:46:15;;;;;;;4.97;4.37;;;1.40;90.50;;;;;;5075136;28;20863;-58
2023/02/27 05:48:47;;;;;;;9.20;4.73;;;1.30;90.80;;;;;;5074700;28;20914;-58
2023/02/27 05:51:16;;;;;;;5.13;4.57;;;1.30;90.60;;;;;;5074730;28;20814;-58
2023/02/27 05:53:48;;;;;;;4.70;4.07;;;1.30;90.50;;;;;;5074910;28;20483;-57
2023/02/27 05:56:17;;;;;;;5.13;4.60;;;1.30;90.40;;;;;;5074947;28;20439;-57
2023/02/27 05:58:52;;;;;;;7.60;4.23;;;1.20;90.20;;;;;;5074378;28;20498;-58
2023/02/27 06:01:19;;;;;;;9.77;4.60;;;1.20;90.20;;;;;;5074669;28;20471;-58
2023/02/27 06:03:46;;;;;;;4.83;4.30;;;1.30;90.40;;;;;;5074830;28;20456;-57
2023/02/27 06:06:16;;;;;;;6.30;4.37;;;1.30;90.40;;;;;;5074636;28;20441;-58
2023/02/27 06:08:43;;;;;;;4.73;4.33;;;1.20;90.40;;;;;;5075518;28;20432;-58
2023/02/27 06:11:09;;;;;;;7.23;4.43;;;1.20;90.30;;;;;;5074566;28;20444;-58
2023/02/27 06:13:36;;;;;;;5.43;4.93;;;1.20;90.40;;;;;;5074486;28;20448;-57
2023/02/27 06:16:05;;;;;;;7.70;5.60;;;1.20;90.50;;;;;;5074454;28;20452;-57
2023/02/27 06:18:32;;;;;;;9.63;5.53;;;1.20;90.60;;;;;;5074337;28;20452;-57
2023/02/27 06:20:58;;;;;;;7.40;5.50;;;1.10;90.50;;;;;;5074045;28;20484;-58
2023/02/27 06:23:25;;;;;;;6.40;5.33;;;1.10;90.50;;;;;;5074267;28;20452;-58
2023/02/27 06:25:52;;;;;;;5.73;4.73;;;1.10;90.50;;;;;;5074270;28;20790;-58
2023/02/27 06:28:18;;;;;;;8.70;5.43;;;1.10;90.70;;;;;;5074204;28;20471;-58
2023/02/27 06:30:45;;;;;;;7.73;5.53;;;1.10;90.80;;;;;;5074144;28;20469;-57
2023/02/27 06:33:13;;;;;;;10.57;6.30;;;1.10;91.20;;;;;;5074117;28;20441;-58
2023/02/27 06:35:40;;;;;;;11.10;6.50;;;1.10;90.90;;;;;;5074034;28;20513;-58
2023/02/27 06:38:06;;;;;;;7.17;6.03;;;1.10;90.90;;;;;;5074836;28;20461;-57
2023/02/27 06:40:33;;;;;;;7.73;5.40;;;1.10;90.90;;;;;;5073938;28;20472;-58
2023/02/27 06:43:00;;;;;;;7.03;5.87;;;1.00;90.90;;;;;;5073919;28;20456;-58
2023/02/27 06:45:26;;;;;;;9.57;6.57;;;1.00;91.10;;;;;;5073630;28;20966;-58
2023/02/27 06:47:53;;;;;;;8.73;6.10;;;1.00;91.30;;;;;;5073818;28;20451;-58
2023/02/27 06:50:21;;;;;;;11.10;8.00;;;1.00;91.40;;;;;;5073823;28;20461;-57
2023/02/27 06:52:48;;;;;;;8.67;7.77;;;1.10;91.60;;;;;;5073576;28;20938;-58
2023/02/27 06:55:18;;;;;;;10.27;7.40;;;1.10;91.80;;;;;;5072851;28;20460;-57
2023/02/27 06:57:46;;;;;;;9.70;7.70;;;1.10;91.90;;;;;;5073815;28;20867;-57
2023/02/27 07:00:14;;;;;;;10.20;7.23;;;1.10;91.90;;;;;;5073667;28;20500;-57
2023/02/27 07:02:41;;;;;;;8.50;6.80;;;1.10;92.00;;;;;;5073555;28;20680;-57
2023/02/27 07:05:10;;;;;;;10.03;6.73;;;1.10;92.10;;;;;;5073701;28;20452;-57
2023/02/27 07:07:38;;;;;;;7.23;6.50;;;1.10;92.20;;;;;;5073629;28;20455;-57
2023/02/27 07:10:07;;;;;;;7.77;6.33;;;1.00;92.30;;;;;;5073707;28;20507;-57
2023/02/27 07:12:33;;;;;;;6.73;5.60;;;1.10;92.60;;;;;;5073950;28;20459;-57
2023/02/27 07:15:00;;;;;;;6.47;5.40;;;1.10;92.80;;;;;;5073721;28;20506;-57
2023/02/27 07:17:27;;;;;;;8.90;6.43;;;1.10;92.90;;;;;;5074214;28;20474;-57
2023/02/27 07:19:54;;;;;;;7.27;5.70;;;1.10;93.20;;;;;;5073617;28;20832;-57
2023/02/27 07:22:20;;;;;;;13.23;8.97;;;1.10;93.40;;;;;;5073464;28;20484;-57
2023/02/27 07:24:48;;;;;;;14.00;9.87;;;1.20;93.70;;;;;;5073212;28;20961;-57
2023/02/27 07:27:15;;;;;;;11.87;8.80;;;1.20;94.10;;;;;;5073851;28;20449;-57
2023/02/27 07:29:42;;;;;;;12.70;8.20;;;1.30;94.30;;;;;;5073170;28;20476;-57
2023/02/27 07:32:10;;;;;;;11.93;7.60;;;1.30;94.40;;;;;;5073480;28;20436;-57
2023/02/27 07:34:36;;;;;;;11.23;7.30;;;1.40;94.50;;;;;;5073397;28;20453;-57
2023/02/27 07:37:03;;;;;;;10.40;7.77;;;1.40;94.60;;;;;;5073345;28;20444;-57
2023/02/27 07:39:30;;;;;;;8.87;6.77;;;1.50;94.70;;;;;;5073514;28;20468;-57
2023/02/27 07:41:58;;;;;;;6.97;6.27;;;1.60;94.90;;;;;;5073146;28;20484;-57
2023/02/27 07:44:24;;;;;;;10.60;6.20;;;1.60;94.90;;;;;;5073238;28;20456;-57
2023/02/27 07:46:51;;;;;;;9.53;6.47;;;1.60;95.00;;;;;;5073099;28;20460;-57
2023/02/27 07:49:17;;;;;;;8.10;6.97;;;1.70;95.00;;;;;;5073277;28;20464;-58
2023/02/27 07:51:44;;;;;;;8.30;6.07;;;1.70;95.10;;;;;;5072878;28;20935;-58
2023/02/27 07:54:11;;;;;;;10.17;5.97;;;1.70;95.10;;;;;;5073279;28;20555;-57
2023/02/27 07:56:38;;;;;;;10.57;6.67;;;1.80;95.10;;;;;;5073029;28;20448;-57
2023/02/27 07:59:06;;;;;;;8.50;5.57;;;1.80;95.10;;;;;;5073018;28;20470;-58
2023/02/27 08:01:32;;;;;;;6.73;6.00;;;1.90;95.10;;;;;;5072800;28;20480;-57
2023/02/27 08:03:59;;;;;;;8.77;6.40;;;1.90;95.10;;;;;;5073076;28;20448;-58
2023/02/27 08:06:26;;;;;;;7.10;6.37;;;2.00;95.20;;;;;;5075169;28;20864;-57
2023/02/27 08:08:53;;;;;;;10.60;5.37;;;2.00;95.30;;;;;;5076960;28;20456;-57
2023/02/27 08:11:19;;;;;;;6.53;5.93;;;2.00;95.30;;;;;;5076584;28;20830;-57
2023/02/27 08:13:46;;;;;;;5.93;5.30;;;2.10;95.30;;;;;;5076545;28;20821;-57
2023/02/27 08:16:14;;;;;;;7.67;6.20;;;2.10;95.30;;;;;;5076665;28;20547;-58
2023/02/27 08:18:41;;;;;;;10.57;6.10;;;2.20;95.40;;;;;;5076695;28;20449;-57
2023/02/27 08:21:08;;;;;;;8.37;6.67;;;2.20;95.40;;;;;;5076411;28;20449;-58
2023/02/27 08:23:34;;;;;;;6.87;6.20;;;2.30;95.30;;;;;;5076653;28;20829;-58
2023/02/27 08:26:01;;;;;;;8.10;6.53;;;2.40;95.20;;;;;;5076533;28;20448;-59
2023/02/27 08:28:28;;;;;;;9.27;6.10;;;2.40;95.10;;;;;;5076589;28;20440;-58
2023/02/27 08:30:55;;;;;;;8.57;6.60;;;2.50;95.20;;;;;;5076483;28;20509;-59
2023/02/27 08:33:25;;;;;;;9.70;6.00;;;2.60;95.10;;;;;;5076614;28;20447;-58
2023/02/27 08:35:53;;;;;;;5.97;5.37;;;2.60;95.00;;;;;;5077232;28;20880;-59
2023/02/27 08:38:20;;;;;;;7.50;5.93;;;2.70;94.90;;;;;;5076300;28;20448;-58
2023/02/27 08:40:46;;;;;;;11.23;6.70;;;2.70;94.60;;;;;;5076240;28;20452;-58
2023/02/27 08:43:13;;;;;;;8.20;5.23;;;2.80;94.40;;;;;;5076145;28;20479;-58
2023/02/27 08:45:40;;;;;;;8.10;5.43;;;2.80;94.20;;;;;;5076313;28;20458;-58
2023/02/27 08:48:07;;;;;;;6.90;5.53;;;2.90;94.10;;;;;;5076836;28;20445;-58
2023/02/27 08:50:35;;;;;;;6.10;5.43;;;2.90;93.90;;;;;;5076102;28;20479;-58
2023/02/27 08:53:02;;;;;;;9.13;5.67;;;3.00;93.80;;;;;;5076160;28;20440;-58
2023/02/27 08:55:28;;;;;;;8.33;6.03;;;3.00;93.70;;;;;;5075783;28;20451;-58
2023/02/27 08:57:55;;;;;;;8.93;5.70;;;3.10;93.50;;;;;;5075716;28;20942;-58
2023/02/27 09:00:23;;;;;;;7.07;5.03;;;3.10;93.40;;;;;;5075980;28;20468;-58
2023/02/27 09:02:50;;;;;;;5.97;5.37;;;3.20;93.30;;;;;;5075908;28;20506;-58
2023/02/27 09:05:17;;;;;;;5.60;4.40;;;3.20;93.20;;;;;;5075958;28;20476;-58
2023/02/27 09:07:45;;;;;;;11.90;5.60;;;3.30;93.10;;;;;;5075920;28;20452;-58
2023/02/27 09:10:13;;;;;;;6.10;5.50;;;3.30;93.20;;;;;;5075581;28;20473;-58
2023/02/27 09:12:39;;;;;;;7.60;4.90;;;3.40;93.10;;;;;;5075505;28;20930;-58
2023/02/27 09:15:07;;;;;;;9.10;5.47;;;3.40;92.90;;;;;;5075738;28;20490;-58
2023/02/27 09:17:34;;;;;;;6.80;5.47;;;3.50;92.70;;;;;;5074387;28;20449;-58
2023/02/27 09:20:01;;;;;;;6.50;4.63;;;3.60;92.40;;;;;;5075602;28;20475;-58
2023/02/27 09:22:28;;;;;;;5.37;4.83;;;3.70;92.20;;;;;;5075276;28;20488;-58
2023/02/27 09:24:56;;;;;;;4.63;3.90;;;3.80;91.90;;;;;;5075553;28;20448;-58
2023/02/27 09:27:23;;;;;;;3.60;3.30;;;3.80;91.30;;;;;;5075592;28;20452;-58
2023/02/27 09:29:54;;;;;;;4.63;3.73;;;3.80;90.80;;;;;;5075495;28;20514;-58
2023/02/27 09:32:20;;;;;;;8.73;4.23;;;3.90;90.70;;;;;;5075400;28;20443;-58
2023/02/27 09:34:47;;;;;;;4.83;3.93;;;4.10;90.40;;;;;;5075846;28;20453;-58
2023/02/27 09:37:14;;;;;;;6.60;3.43;;;4.10;89.50;;;;;;5075317;28;20456;-58
2023/02/27 09:39:41;;;;;;;5.90;4.30;;;4.20;89.00;;;;;;5075714;28;20571;-58
2023/02/27 09:42:18;;;;;;;7.93;4.27;;;4.30;88.60;;;;;;5075201;28;20481;-58
2023/02/27 09:44:47;;;;;;;4.27;3.87;;;4.40;88.60;;;;;;5074816;28;20425;-58
2023/02/27 09:47:19;;;;;;;5.60;4.67;;;4.50;88.40;;;;;;5075029;28;20452;-58
2023/02/27 09:49:55;;;;;;;6.77;4.27;;;4.50;88.70;;;;;;5074961;28;20855;-57
2023/02/27 09:52:22;;;;;;;12.40;4.30;;;4.60;88.30;;;;;;5075200;28;20432;-57
2023/02/27 09:54:49;;;;;;;5.47;3.83;;;4.70;87.80;;;;;;5074947;28;20536;-58
2023/02/27 09:57:24;;;;;;;9.03;4.03;;;4.80;87.90;;;;;;5074906;28;20452;-57
2023/02/27 09:59:56;;;;;;;7.53;4.60;;;4.90;87.70;;;;;;5074969;28;20472;-57
2023/02/27 10:02:42;;;;;;;4.67;3.33;;;5.00;87.90;;;;;;5075098;28;20469;-57
2023/02/27 10:05:18;;;;;;;5.77;3.60;;;5.10;86.90;;;;;;5074982;28;20433;-57
2023/02/27 10:07:52;;;;;;;5.67;3.97;;;5.30;86.70;;;;;;5075078;28;20432;-58
2023/02/27 10:10:27;;;;;;;4.43;3.80;;;5.40;85.70;;;;;;5074420;28;21038;-58
2023/02/27 10:13:05;;;;;;;6.97;3.60;;;5.50;84.40;;;;;;5074608;28;20429;-58
2023/02/27 10:15:36;;;;;;;3.97;3.60;;;5.70;83.90;;;;;;5074607;28;20429;-58
2023/02/27 10:18:09;;;;;;;7.30;4.00;;;5.80;84.70;;;;;;5074269;28;20440;-58
2023/02/27 10:20:41;;;;;;;9.97;4.40;;;5.90;83.30;;;;;;5074670;28;20502;-58
2023/02/27 10:23:14;;;;;;;5.73;4.53;;;6.10;82.50;;;;;;5073955;28;20495;-58
2023/02/27 10:25:47;;;;;;;8.90;5.83;;;6.30;82.40;;;;;;5074370;28;20433;-58
2023/02/27 10:28:17;;;;;;;6.70;4.10;;;6.60;81.50;;;;;;5073974;28;21108;-58
2023/02/27 10:30:49;;;;;;;6.13;4.60;;;6.90;80.00;;;;;;5073893;28;21002;-58
2023/02/27 10:33:22;;;;;;;7.10;3.50;;;7.30;78.20;;;;;;5073887;28;20432;-58
2023/02/27 10:35:50;;;;;;;6.93;3.37;;;7.80;75.30;;;;;;5073762;28;20922;-58
2023/02/27 10:38:21;;;;;;;6.83;3.23;;;8.30;72.10;;;;;;5074191;28;20479;-58
2023/02/27 10:40:48;;;;;;;4.90;3.10;;;8.70;69.80;;;;;;5073996;28;20469;-59
2023/02/27 10:43:18;;;;;;;4.20;2.90;;;9.30;66.00;;;;;;5074149;28;20510;-58
2023/02/27 10:45:44;;;;;;;3.00;2.63;;;9.80;64.60;;;;;;5073912;28;20499;-58
2023/02/27 10:48:13;;;;;;;3.90;2.57;;;10.40;60.70;;;;;;5073917;28;20451;-58
2023/02/27 10:50:42;;;;;;;5.57;2.27;;;11.10;57.60;;;;;;5073440;28;20996;-58
2023/02/27 10:53:19;;;;;;;3.20;1.70;;;11.60;54.20;;;;;;5073808;28;20441;-58
2023/02/27 10:55:56;;;;;;;2.53;2.33;;;12.20;50.90;;;;;;5073394;28;20433;-58
2023/02/27 10:58:25;;;;;;;3.53;1.87;;;12.80;48.90;;;;;;5073911;28;20439;-58
2023/02/27 11:00:56;;;;;;;2.63;1.90;;;13.20;46.20;;;;;;5073576;28;20464;-59
2023/02/27 11:03:27;;;;;;;3.83;2.27;;;13.60;44.40;;;;;;5073956;28;20547;-58
2023/02/27 11:05:57;;;;;;;6.73;2.10;;;13.90;44.00;;;;;;5073676;28;20532;-59
2023/02/27 11:08:25;;;;;;;3.50;1.87;;;14.40;44.00;;;;;;5073367;28;20934;-59
2023/02/27 11:10:58;;;;;;;1.83;1.73;;;14.90;42.50;;;;;;5073541;28;20890;-58
2023/02/27 11:13:28;;;;;;;3.53;1.80;;;15.40;40.70;;;;;;5073439;28;20440;-58
2023/02/27 11:16:13;;;;;;;1.93;1.73;;;15.70;39.10;;;;;;5073472;28;20452;-58
2023/02/27 11:18:42;;;;;;;2.20;1.90;;;15.60;38.20;;;;;;5073440;28;20428;-59
2023/02/27 11:21:16;;;;;;;3.90;2.30;;;15.40;38.40;;;;;;5073290;28;20459;-59
2023/02/27 11:23:57;;;;;;;3.10;1.30;;;15.50;38.30;;;;;;5073393;28;20630;-59
2023/02/27 11:26:27;;;;;;;1.90;1.70;;;15.60;38.10;;;;;;5073370;28;20446;-59
2023/02/27 11:29:07;;;;;;;2.10;1.40;;;15.80;37.30;;;;;;5073328;28;20445;-59
2023/02/27 11:31:36;;;;;;;3.10;1.50;;;16.20;37.00;;;;;;5073422;28;20849;-59
2023/02/27 11:34:04;;;;;;;2.83;1.40;;;16.70;34.80;;;;;;5073254;28;20447;-59
2023/02/27 11:36:42;;;;;;;2.50;1.40;;;17.10;34.00;;;;;;5073271;28;20510;-59
2023/02/27 11:39:23;;;;;;;5.00;1.50;;;17.60;33.20;;;;;;5073193;28;20460;-59
2023/02/27 11:41:50;;;;;;;3.00;1.13;;;17.90;32.70;;;;;;5078748;28;20431;-59
2023/02/27 11:44:22;;;;;;;5.10;1.30;;;17.90;32.10;;;;;;5079763;28;20488;-59
2023/02/27 11:46:48;;;;;;;2.23;1.60;;;17.60;32.10;;;;;;5079867;28;20452;-59
2023/02/27 11:49:29;;;;;;;1.40;1.30;;;17.30;32.30;;;;;;5079720;28;20476;-59
2023/02/27 11:52:04;;;;;;;1.87;1.50;;;16.80;32.60;;;;;;5079522;28;20466;-59
2023/02/27 11:54:37;;;;;;;3.47;1.37;;;16.20;33.60;;;;;;5079796;28;20429;-59
2023/02/27 11:57:12;;;;;;;2.67;1.70;;;15.60;34.60;;;;;;5079809;28;20424;-59
2023/02/27 11:59:46;;;;;;;3.47;1.70;;;14.90;35.50;;;;;;5079723;28;20476;-59
2023/02/27 12:02:20;;;;;;;2.17;1.30;;;14.70;37.30;;;;;;5079727;28;20468;-59
2023/02/27 12:04:51;;;;;;;5.37;1.90;;;14.90;36.60;;;;;;5079647;28;20436;-59
2023/02/27 12:07:23;;;;;;;3.10;1.70;;;15.00;36.10;;;;;;5079744;28;20433;-59
2023/02/27 12:09:57;;;;;;;1.63;1.47;;;15.50;35.30;;;;;;5079598;28;20464;-59
2023/02/27 12:12:31;;;;;;;5.20;1.83;;;16.20;35.40;;;;;;5079668;28;20530;-59
2023/02/27 12:15:09;;;;;;;2.33;1.43;;;17.10;34.70;;;;;;5079614;28;20436;-59
2023/02/27 12:17:40;;;;;;;2.30;1.47;;;18.00;32.90;;;;;;5079278;28;20932;-59
2023/02/27 12:20:23;;;;;;;2.23;1.40;;;19.00;31.40;;;;;;5079543;28;20476;-59
2023/02/27 12:22:53;;;;;;;3.93;1.57;;;19.80;29.60;;;;;;5079379;28;20490;-59
2023/02/27 12:25:29;;;;;;;2.80;1.70;;;20.50;29.50;;;;;;5079993;28;20459;-59
2023/02/27 12:28:02;;;;;;;2.70;1.70;;;21.20;28.10;;;;;;5079524;28;20448;-59
2023/02/27 12:30:38;;;;;;;1.93;1.50;;;21.70;27.20;;;;;;5079493;28;20472;-59
2023/02/27 12:33:15;;;;;;;2.30;1.50;;;22.20;26.40;;;;;;5079483;28;20478;-59
2023/02/27 12:35:46;;;;;;;2.37;1.23;;;22.30;25.80;;;;;;5079554;28;20425;-59
2023/02/27 12:38:15;;;;;;;1.67;1.30;;;22.40;25.90;;;;;;5079523;28;20432;-59
2023/02/27 12:40:49;;;;;;;3.37;1.60;;;22.60;25.90;;;;;;5079571;28;20496;-59
2023/02/27 12:43:28;;;;;;;2.60;1.50;;;22.90;25.90;;;;;;5079299;28;20487;-59
2023/02/27 12:46:21;;;;;;;1.90;1.00;;;22.90;25.20;;;;;;5078996;28;20432;-59
2023/02/27 12:49:00;;;;;;;2.07;1.40;;;23.10;24.90;;;;;;5078903;28;20906;-59
2023/02/27 12:51:39;;;;;;;1.60;1.10;;;23.10;24.80;;;;;;5078681;28;20432;-59
2023/02/27 12:54:18;;;;;;;2.67;1.30;;;22.90;25.40;;;;;;5076198;28;20443;-59
2023/02/27 12:57:00;;;;;;;4.33;2.20;;;22.90;25.10;;;;;;5076202;28;20429;-59
2023/02/27 12:59:43;;;;;;;1.73;1.60;;;22.90;25.10;;;;;;5076126;28;20468;-59
2023/02/27 13:02:28;;;;;;;2.97;1.73;;;22.80;24.30;;;;;;5076060;28;20429;-59
2023/02/27 13:05:08;;;;;;;5.60;1.83;;;23.00;25.30;;;;;;5075945;28;20477;-59
2023/02/27 13:07:44;;;;;;;1.90;1.47;;;23.00;24.30;;;;;;5076767;28;20546;-59
2023/02/27 13:10:17;;;;;;;1.70;1.57;;;22.30;24.90;;;;;;5076537;28;20517;-59
2023/02/27 13:12:50;;;;;;;2.90;1.47;;;21.50;25.80;;;;;;5075837;28;20790;-59
2023/02/27 13:15:23;;;;;;;5.37;1.50;;;20.90;26.00;;;;;;5075520;28;20444;-59
2023/02/27 13:17:56;;;;;;;2.70;1.33;;;20.20;26.10;;;;;;5075851;28;20472;-59